Metar GG30 METAR message from awiacja.imgw.pl Metar G30 EPSY METAR EPSY 201530Z 22009KT 9999 SCT033 04/M00 Q1019=